SBOSBO BSL / LFSB
Speedbird OnlineSpeedbird Online BSL / LFSB

EuroAirport Basel-Mulhouse-Freiburg Airport
03:19 -1°C

Location Mulhouse, France
Latitude: 47.59
Longitude: 7.5291667
Web Airport Website | Wikipedia
Altitude 270 Meter / 885 Feet
Distance 689 KM / 428 Miles
from London.
Time Zone UTC +1 hours (Europe/Paris)
Codes IATA: BSL
ICAO: LFSB
Currency £1 equals EUR 1.14
Runways
RunwayLength (m)Surface
071715Concrete
153900Concrete
251715Concrete
333900Concrete
Radio
TypeDescriptionFrequency
A/DAPP118.575
ATISATIS127.875
GNDGND121.6
INFOINFO121.25
PFLTPREFLIGHT120.5
TWRTWR118.3
Live ATC
METAR LFSB 270200Z AUTO 36008KT 330V030 9999 FEW012 OVC024 M01/M03 Q1019 TEMPO 4000 BR OVC004
TAF TAF AMD LFSB 270130Z 2701/2724 34006KT 8000 SCT013 OVC025 PROB40 TEMPO 2701/2709 4000 BR OVC004 PROB30 TEMPO 2701/2706 -FZDZ PROB40 TEMPO 2721/2724 BKN006
Weather As Of 27 Jan 2023 03:19
Description Overcast clouds
Wind 15 km/h from North (360°)
Cloud Cover 100%
Precipitation Rain: none, Snow: none
Sunrise 08:03
Sunset 17:21
Lounges EuroAirport Skyview Lounge , Y Terminal
Rotations During the last 90 days there were
112 flights from LHR
107 flights to LHR



Support Speedbird Online

© 2017-2023 Speedbird Online